createdAt,value
2023-05-12T00:00:09.594Z,9.56
2023-05-12T00:02:39.131Z,9.56
2023-05-12T00:05:06.092Z,9.60
2023-05-12T00:07:32.825Z,9.55
2023-05-12T00:09:59.440Z,9.53
2023-05-12T00:12:26.146Z,9.58
2023-05-12T00:14:52.802Z,9.52
2023-05-12T00:17:19.424Z,9.45
2023-05-12T00:19:46.847Z,9.52
2023-05-12T00:22:15.474Z,9.41
2023-05-12T00:24:42.046Z,9.43
2023-05-12T00:27:08.756Z,9.48
2023-05-12T00:29:36.706Z,9.52
2023-05-12T00:32:04.169Z,9.61
2023-05-12T00:34:30.801Z,9.55
2023-05-12T00:36:57.386Z,9.55
2023-05-12T00:39:23.981Z,9.57
2023-05-12T00:41:56.184Z,9.49
2023-05-12T00:44:22.983Z,9.58
2023-05-12T00:46:50.621Z,9.50
2023-05-12T00:49:17.279Z,9.61
2023-05-12T00:51:43.966Z,9.54
2023-05-12T00:54:10.674Z,9.67
2023-05-12T00:56:39.469Z,9.52
2023-05-12T00:59:08.765Z,9.48
2023-05-12T01:01:38.829Z,9.49
2023-05-12T01:04:05.901Z,9.50
2023-05-12T01:06:39.644Z,9.54
2023-05-12T01:09:08.619Z,9.52
2023-05-12T01:11:35.536Z,9.59
2023-05-12T01:14:02.586Z,9.52
2023-05-12T01:16:50.063Z,9.54
2023-05-12T01:19:37.995Z,9.47
2023-05-12T01:22:05.700Z,9.50
2023-05-12T01:24:36.168Z,9.46
2023-05-12T01:27:03.683Z,9.43
2023-05-12T01:29:31.721Z,9.48
2023-05-12T01:31:59.164Z,9.42
2023-05-12T01:34:26.096Z,9.38
2023-05-12T01:36:52.704Z,9.40
2023-05-12T01:39:19.699Z,9.52
2023-05-12T01:41:46.592Z,9.45
2023-05-12T01:44:13.461Z,9.38
2023-05-12T01:46:40.130Z,9.41
2023-05-12T01:49:06.935Z,9.54
2023-05-12T01:51:34.060Z,9.49
2023-05-12T01:54:00.945Z,9.42
2023-05-12T01:56:31.532Z,9.44
2023-05-12T01:58:58.269Z,9.40
2023-05-12T02:01:28.643Z,9.41
2023-05-12T02:03:56.875Z,9.41
2023-05-12T02:06:26.242Z,9.38
2023-05-12T02:08:53.172Z,9.43
2023-05-12T02:11:19.972Z,9.36
2023-05-12T02:13:46.589Z,9.41
2023-05-12T02:16:14.156Z,9.37
2023-05-12T02:18:41.908Z,9.35
2023-05-12T02:21:08.540Z,9.44
2023-05-12T02:23:35.172Z,9.40
2023-05-12T02:26:01.923Z,9.37
2023-05-12T02:28:28.586Z,9.36
2023-05-12T02:30:55.227Z,9.39
2023-05-12T02:33:23.204Z,9.42
2023-05-12T02:35:50.580Z,9.45
2023-05-12T02:38:17.278Z,9.38
2023-05-12T02:40:43.949Z,9.42
2023-05-12T02:43:11.166Z,9.37
2023-05-12T02:45:37.967Z,9.37
2023-05-12T02:48:04.898Z,9.37
2023-05-12T02:50:31.585Z,9.30
2023-05-12T02:52:58.350Z,9.36
2023-05-12T02:55:25.074Z,9.31
2023-05-12T02:57:51.669Z,9.29
2023-05-12T03:00:18.448Z,9.29
2023-05-12T03:02:45.558Z,9.29
2023-05-12T03:05:12.187Z,9.31
2023-05-12T03:07:39.464Z,9.29
2023-05-12T03:10:06.693Z,9.28
2023-05-12T03:12:33.279Z,9.34
2023-05-12T03:14:59.912Z,9.31
2023-05-12T03:17:26.809Z,9.33
2023-05-12T03:19:53.457Z,9.25
2023-05-12T03:22:20.107Z,9.25
2023-05-12T03:24:46.725Z,9.22
2023-05-12T03:27:13.422Z,9.24
2023-05-12T03:29:40.070Z,9.27
2023-05-12T03:32:07.136Z,9.29
2023-05-12T03:34:34.001Z,9.32
2023-05-12T03:37:00.873Z,9.35
2023-05-12T03:39:27.483Z,9.32
2023-05-12T03:41:55.124Z,9.31
2023-05-12T03:44:21.732Z,9.34
2023-05-12T03:46:48.364Z,9.30
2023-05-12T03:49:15.052Z,9.36
2023-05-12T03:51:41.643Z,9.29
2023-05-12T03:54:08.602Z,9.23
2023-05-12T03:56:35.586Z,9.25
2023-05-12T03:59:02.189Z,9.23
2023-05-12T04:01:28.854Z,9.22
2023-05-12T04:03:55.709Z,9.21
2023-05-12T04:06:22.365Z,9.22
2023-05-12T04:08:48.950Z,9.25
2023-05-12T04:11:15.578Z,9.21
2023-05-12T04:13:42.350Z,9.26
2023-05-12T04:16:09.897Z,9.24
2023-05-12T04:18:36.865Z,9.18
2023-05-12T04:21:05.372Z,9.16
2023-05-12T04:23:32.394Z,9.23
2023-05-12T04:25:59.037Z,9.17
2023-05-12T04:28:25.763Z,9.20
2023-05-12T04:30:53.017Z,9.17
2023-05-12T04:33:21.374Z,9.27
2023-05-12T04:35:48.132Z,9.21
2023-05-12T04:38:15.948Z,9.22
2023-05-12T04:40:42.753Z,9.25
2023-05-12T04:43:59.810Z,9.35
2023-05-12T04:45:57.064Z,9.28
2023-05-12T04:48:24.902Z,9.33
2023-05-12T04:50:51.499Z,9.40
2023-05-12T04:53:18.596Z,9.38
2023-05-12T04:55:46.135Z,9.41
2023-05-12T04:58:16.413Z,9.56
2023-05-12T05:00:43.963Z,9.61
2023-05-12T05:03:11.018Z,9.59
2023-05-12T05:05:37.919Z,9.61
2023-05-12T05:08:04.994Z,9.64
2023-05-12T05:10:32.376Z,9.68
2023-05-12T05:12:58.965Z,9.66
2023-05-12T05:15:25.616Z,9.67
2023-05-12T05:17:52.358Z,9.67
2023-05-12T05:20:19.894Z,9.68
2023-05-12T05:22:48.364Z,9.73
2023-05-12T05:25:16.755Z,9.73
2023-05-12T05:27:43.428Z,9.75
2023-05-12T05:30:10.453Z,9.87
2023-05-12T05:32:40.376Z,9.86
2023-05-12T05:35:08.345Z,9.89
2023-05-12T05:37:38.550Z,10.01
2023-05-12T05:40:05.928Z,10.11
2023-05-12T05:42:32.503Z,10.12
2023-05-12T05:44:59.715Z,10.16
2023-05-12T05:47:28.197Z,10.16
2023-05-12T05:49:55.467Z,10.11
2023-05-12T05:52:22.644Z,10.19
2023-05-12T05:54:49.316Z,10.24
2023-05-12T05:57:17.421Z,10.23
2023-05-12T05:59:45.065Z,10.37
2023-05-12T06:02:11.756Z,10.39
2023-05-12T06:04:38.384Z,10.43
2023-05-12T06:07:05.181Z,10.43
2023-05-12T06:09:32.414Z,10.44
2023-05-12T06:11:59.052Z,10.46
2023-05-12T06:14:25.700Z,10.43
2023-05-12T06:16:52.292Z,10.19
2023-05-12T06:19:18.921Z,10.27
2023-05-12T06:21:45.586Z,10.28
2023-05-12T06:24:12.768Z,10.29
2023-05-12T06:26:41.180Z,10.32
2023-05-12T06:29:08.266Z,10.34
2023-05-12T06:31:35.061Z,10.17
2023-05-12T06:34:03.048Z,10.28
2023-05-12T06:36:30.199Z,10.20
2023-05-12T06:38:57.260Z,10.33
2023-05-12T06:41:25.077Z,10.41
2023-05-12T06:43:52.126Z,10.44
2023-05-12T06:46:26.978Z,10.51
2023-05-12T06:48:55.336Z,10.54
2023-05-12T06:51:21.958Z,10.69
2023-05-12T06:53:48.967Z,10.75
2023-05-12T06:56:17.294Z,11.01
2023-05-12T06:58:44.051Z,11.16
2023-05-12T07:01:10.732Z,11.20
2023-05-12T07:03:37.395Z,11.47
2023-05-12T07:06:04.151Z,11.66
2023-05-12T07:08:30.859Z,11.91
2023-05-12T07:11:00.018Z,11.89
2023-05-12T07:13:26.937Z,11.93
2023-05-12T07:15:53.607Z,11.81
2023-05-12T07:18:20.310Z,12.07
2023-05-12T07:20:47.002Z,11.97
2023-05-12T07:23:13.668Z,12.10
2023-05-12T07:25:40.608Z,12.33
2023-05-12T07:28:07.564Z,12.62
2023-05-12T07:30:34.251Z,12.78
2023-05-12T07:33:01.480Z,12.84
2023-05-12T07:35:28.346Z,13.03
2023-05-12T07:37:54.966Z,13.17
2023-05-12T07:40:21.627Z,13.10
2023-05-12T07:42:48.518Z,13.07
2023-05-12T07:45:22.832Z,13.20
2023-05-12T07:47:50.892Z,13.22
2023-05-12T07:50:18.954Z,13.45
2023-05-12T07:52:49.720Z,13.82
2023-05-12T07:55:17.702Z,13.31
2023-05-12T07:57:44.581Z,13.48
2023-05-12T08:00:12.369Z,13.33
2023-05-12T08:02:42.933Z,13.62
2023-05-12T08:05:10.812Z,13.63
2023-05-12T08:07:38.608Z,13.79
2023-05-12T08:10:06.527Z,14.15
2023-05-12T08:12:33.795Z,13.64
2023-05-12T08:15:00.392Z,13.78
2023-05-12T08:17:29.139Z,13.96
2023-05-12T08:19:56.044Z,13.99
2023-05-12T08:22:22.796Z,13.90
2023-05-12T08:24:49.425Z,13.72
2023-05-12T08:27:16.039Z,13.56
2023-05-12T08:29:42.611Z,13.37
2023-05-12T08:32:09.242Z,13.28
2023-05-12T08:34:36.171Z,13.30
2023-05-12T08:37:03.108Z,13.28
2023-05-12T08:39:31.055Z,13.13
2023-05-12T08:42:09.473Z,13.04
2023-05-12T08:44:40.035Z,13.28
2023-05-12T08:47:07.114Z,12.93
2023-05-12T08:49:36.409Z,12.61
2023-05-12T08:52:03.762Z,12.50
2023-05-12T08:54:30.838Z,12.39
2023-05-12T08:59:27.162Z,12.42
2023-05-12T09:01:55.167Z,12.36
2023-05-12T09:04:21.886Z,12.10
2023-05-12T09:06:49.015Z,12.22
2023-05-12T09:09:19.887Z,12.27
2023-05-12T09:11:48.324Z,12.37
2023-05-12T09:14:25.468Z,12.43
2023-05-12T09:16:59.901Z,12.62
2023-05-12T09:19:26.824Z,12.52
2023-05-12T09:21:53.523Z,12.56
2023-05-12T09:24:21.075Z,12.79
2023-05-12T09:26:53.102Z,12.90
2023-05-12T09:29:30.038Z,13.08
2023-05-12T09:31:59.483Z,13.54
2023-05-12T09:34:35.667Z,13.83
2023-05-12T09:37:05.423Z,14.12
2023-05-12T09:39:32.398Z,14.19
2023-05-12T09:41:59.078Z,14.53
2023-05-12T09:44:26.836Z,15.02
2023-05-12T09:46:53.607Z,15.22
2023-05-12T09:49:26.786Z,15.65
2023-05-12T09:51:57.275Z,15.62
2023-05-12T09:54:28.441Z,15.22
2023-05-12T09:56:58.783Z,15.51
2023-05-12T09:59:36.233Z,15.44
2023-05-12T10:02:06.384Z,15.42
2023-05-12T10:05:06.233Z,15.11
2023-05-12T10:07:33.622Z,15.09
2023-05-12T10:10:04.768Z,15.13
2023-05-12T10:12:31.518Z,14.76
2023-05-12T10:14:58.901Z,14.85
2023-05-12T10:17:26.876Z,14.76
2023-05-12T10:19:54.948Z,14.65
2023-05-12T10:22:21.846Z,14.23
2023-05-12T10:24:49.380Z,14.30
2023-05-12T10:27:17.183Z,14.26
2023-05-12T10:29:44.600Z,14.11
2023-05-12T10:32:11.522Z,14.11
2023-05-12T10:34:41.931Z,13.96
2023-05-12T10:37:11.388Z,13.94
2023-05-12T10:39:47.417Z,13.69
2023-05-12T10:42:17.408Z,13.75
2023-05-12T10:44:54.139Z,13.90
2023-05-12T10:47:26.834Z,14.15
2023-05-12T10:49:59.969Z,14.18
2023-05-12T10:52:26.637Z,14.09
2023-05-12T10:55:04.027Z,13.59
2023-05-12T10:57:33.308Z,13.36
2023-05-12T11:00:02.029Z,13.04
2023-05-12T11:02:36.686Z,13.02
2023-05-12T11:05:13.168Z,12.02
2023-05-12T11:07:40.307Z,12.23
2023-05-12T11:10:08.510Z,12.41
2023-05-12T11:12:36.107Z,12.37
2023-05-12T11:15:04.818Z,12.36
2023-05-12T11:17:31.933Z,12.34
2023-05-12T11:20:00.738Z,12.12
2023-05-12T11:22:27.583Z,12.00
2023-05-12T11:24:54.266Z,12.09
2023-05-12T11:27:23.514Z,12.20
2023-05-12T11:30:01.775Z,12.38
2023-05-12T11:32:29.731Z,12.44
2023-05-12T11:34:56.913Z,12.58
2023-05-12T11:37:23.663Z,12.67
2023-05-12T11:39:52.922Z,12.90
2023-05-12T11:42:21.586Z,13.10
2023-05-12T11:44:50.713Z,13.41
2023-05-12T11:47:19.817Z,13.68
2023-05-12T11:49:51.423Z,13.94
2023-05-12T11:52:19.839Z,14.09
2023-05-12T11:54:54.263Z,14.34
2023-05-12T11:57:28.873Z,14.45
2023-05-12T12:00:07.144Z,14.60
2023-05-12T12:02:36.031Z,14.75
2023-05-12T12:05:03.376Z,14.76
2023-05-12T12:07:35.385Z,15.01
2023-05-12T12:10:16.763Z,15.01
2023-05-12T12:12:44.738Z,14.84
2023-05-12T12:15:12.415Z,14.43
2023-05-12T12:17:39.917Z,13.87
2023-05-12T12:20:08.127Z,13.99
2023-05-12T12:22:35.644Z,13.40
2023-05-12T12:25:03.624Z,13.74
2023-05-12T12:27:30.967Z,14.05
2023-05-12T12:29:57.827Z,14.20
2023-05-12T12:32:24.529Z,14.32
2023-05-12T12:34:51.555Z,14.34
2023-05-12T12:37:18.154Z,13.94
2023-05-12T12:39:44.795Z,14.04
2023-05-12T12:42:11.368Z,14.10
2023-05-12T12:44:37.942Z,13.79
2023-05-12T12:47:05.057Z,13.84
2023-05-12T12:49:31.768Z,13.34
2023-05-12T12:51:58.383Z,13.38
2023-05-12T12:54:27.335Z,13.40
2023-05-12T12:56:55.384Z,13.54
2023-05-12T12:59:22.106Z,13.65
2023-05-12T13:01:49.051Z,13.67
2023-05-12T13:04:17.133Z,13.85
2023-05-12T13:06:43.886Z,13.77
2023-05-12T13:09:10.808Z,13.99
2023-05-12T13:11:37.603Z,13.89
2023-05-12T13:14:04.603Z,13.91
2023-05-12T13:16:31.649Z,13.82
2023-05-12T13:18:58.351Z,13.48
2023-05-12T13:21:25.293Z,13.41
2023-05-12T13:23:51.984Z,13.33
2023-05-12T13:26:18.565Z,13.47
2023-05-12T13:28:45.307Z,13.53
2023-05-12T13:31:12.198Z,13.41
2023-05-12T13:33:39.246Z,13.17
2023-05-12T13:36:06.336Z,12.86
2023-05-12T13:38:33.899Z,12.70
2023-05-12T13:41:00.635Z,12.43
2023-05-12T13:43:27.280Z,12.39
2023-05-12T13:45:53.884Z,12.27
2023-05-12T13:48:20.806Z,11.80
2023-05-12T13:50:47.709Z,11.83
2023-05-12T13:53:14.315Z,11.95
2023-05-12T13:55:41.347Z,12.16
2023-05-12T13:58:07.981Z,12.23
2023-05-12T14:00:34.624Z,12.12
2023-05-12T14:03:01.687Z,12.01
2023-05-12T14:05:28.929Z,12.00
2023-05-12T14:07:55.730Z,12.18
2023-05-12T14:10:22.322Z,12.22
2023-05-12T14:12:48.972Z,12.34
2023-05-12T14:15:28.874Z,12.46
2023-05-12T14:18:02.283Z,12.60
2023-05-12T14:20:28.973Z,12.60
2023-05-12T14:22:55.807Z,12.51
2023-05-12T14:25:23.859Z,12.34
2023-05-12T14:27:51.024Z,12.34
2023-05-12T14:30:17.920Z,12.25
2023-05-12T14:32:44.668Z,12.11
2023-05-12T14:35:11.582Z,12.06
2023-05-12T14:37:38.420Z,12.02
2023-05-12T14:40:05.693Z,12.06
2023-05-12T14:42:32.412Z,12.23
2023-05-12T14:44:59.270Z,12.37
2023-05-12T14:47:25.965Z,12.37
2023-05-12T14:49:52.614Z,12.48
2023-05-12T14:52:19.228Z,12.57
2023-05-12T14:54:45.845Z,12.59
2023-05-12T14:57:13.570Z,12.58
2023-05-12T14:59:40.205Z,12.56
2023-05-12T15:02:07.763Z,12.04
2023-05-12T15:04:34.519Z,11.68
2023-05-12T15:07:01.071Z,11.53
2023-05-12T15:09:27.633Z,11.34
2023-05-12T15:11:55.081Z,11.26
2023-05-12T15:14:21.753Z,11.35
2023-05-12T15:16:48.415Z,11.28
2023-05-12T15:19:15.291Z,11.44
2023-05-12T15:21:41.991Z,11.47
2023-05-12T15:24:08.640Z,11.60
2023-05-12T15:26:38.295Z,11.50
2023-05-12T15:29:06.463Z,11.52
2023-05-12T15:31:33.134Z,11.59
2023-05-12T15:34:00.478Z,11.68
2023-05-12T15:36:27.109Z,11.67
2023-05-12T15:38:53.714Z,11.67
2023-05-12T15:41:20.428Z,11.57
2023-05-12T15:43:47.044Z,11.56
2023-05-12T15:46:13.649Z,11.60
2023-05-12T15:48:40.317Z,11.51
2023-05-12T15:51:07.004Z,11.49
2023-05-12T15:53:33.961Z,11.55
2023-05-12T15:56:04.938Z,11.65
2023-05-12T15:58:32.040Z,11.66
2023-05-12T16:00:59.098Z,11.65
2023-05-12T16:03:25.935Z,11.68
2023-05-12T16:05:52.682Z,11.59
2023-05-12T16:08:19.249Z,11.55
2023-05-12T16:10:45.854Z,11.43
2023-05-12T16:13:13.730Z,11.31
2023-05-12T16:15:40.688Z,11.24
2023-05-12T16:18:10.234Z,11.18
2023-05-12T16:20:37.927Z,11.11
2023-05-12T16:23:04.748Z,10.99
2023-05-12T16:25:31.399Z,11.14
2023-05-12T16:27:58.067Z,11.17
2023-05-12T16:30:25.036Z,11.21
2023-05-12T16:32:51.757Z,11.02
2023-05-12T16:35:18.611Z,10.85
2023-05-12T16:37:45.388Z,10.89
2023-05-12T16:40:12.284Z,10.84
2023-05-12T16:42:38.890Z,10.63
2023-05-12T16:45:06.392Z,10.58
2023-05-12T16:47:33.022Z,10.55
2023-05-12T16:49:59.861Z,10.51
2023-05-12T16:52:26.860Z,10.56
2023-05-12T16:54:56.114Z,10.50
2023-05-12T16:57:23.400Z,10.50
2023-05-12T16:59:50.291Z,10.46
2023-05-12T17:02:17.129Z,10.50
2023-05-12T17:04:44.709Z,10.53
2023-05-12T17:07:11.434Z,10.51
2023-05-12T17:09:38.065Z,10.48
2023-05-12T17:12:06.733Z,10.50
2023-05-12T17:14:34.943Z,10.44
2023-05-12T17:17:02.324Z,10.40
2023-05-12T17:19:29.813Z,10.37
2023-05-12T17:21:56.448Z,10.33
2023-05-12T17:24:23.211Z,10.29
2023-05-12T17:26:50.577Z,10.25
2023-05-12T17:29:17.678Z,10.13
2023-05-12T17:31:44.392Z,10.11
2023-05-12T17:34:11.013Z,10.12
2023-05-12T17:36:37.999Z,10.17
2023-05-12T17:39:04.629Z,10.12
2023-05-12T17:41:31.308Z,10.15
2023-05-12T17:43:57.908Z,10.08
2023-05-12T17:46:24.648Z,10.12
2023-05-12T17:48:51.845Z,10.17
2023-05-12T17:51:18.528Z,10.13
2023-05-12T17:53:46.196Z,10.16
2023-05-12T17:56:13.077Z,10.05
2023-05-12T17:58:39.721Z,10.03
2023-05-12T18:01:06.392Z,9.91
2023-05-12T18:03:33.387Z,9.92
2023-05-12T18:06:00.008Z,9.89
2023-05-12T18:08:27.263Z,9.91
2023-05-12T18:10:53.943Z,9.87
2023-05-12T18:13:20.665Z,9.84
2023-05-12T18:15:50.045Z,9.85
2023-05-12T18:18:16.967Z,9.81
2023-05-12T18:20:43.833Z,9.81
2023-05-12T18:23:10.543Z,9.83
2023-05-12T18:25:37.311Z,9.82
2023-05-12T18:28:04.034Z,9.86
2023-05-12T18:30:30.726Z,9.85
2023-05-12T18:32:57.424Z,9.91
2023-05-12T18:35:24.802Z,9.90
2023-05-12T18:37:51.444Z,9.85
2023-05-12T18:40:18.052Z,9.86
2023-05-12T18:42:44.987Z,9.87
2023-05-12T18:45:11.929Z,9.89
2023-05-12T18:47:38.859Z,9.86
2023-05-12T18:50:06.385Z,9.87
2023-05-12T18:52:33.129Z,9.90
2023-05-12T18:54:59.885Z,9.86
2023-05-12T18:57:26.725Z,9.89
2023-05-12T18:59:53.577Z,9.92
2023-05-12T19:02:20.296Z,9.89
2023-05-12T19:04:47.070Z,9.87
2023-05-12T19:07:15.516Z,9.88
2023-05-12T19:09:43.351Z,9.90
2023-05-12T19:12:13.326Z,9.89
2023-05-12T19:14:40.341Z,9.85
2023-05-12T19:17:07.612Z,9.81
2023-05-12T19:19:34.731Z,9.83
2023-05-12T19:22:01.533Z,9.81
2023-05-12T19:24:28.226Z,9.80
2023-05-12T19:26:54.928Z,9.78
2023-05-12T19:29:21.709Z,9.74
2023-05-12T19:31:48.682Z,9.61
2023-05-12T19:34:15.416Z,9.64
2023-05-12T19:36:42.418Z,9.69
2023-05-12T19:39:09.052Z,9.73
2023-05-12T19:41:35.750Z,9.67
2023-05-12T19:44:02.393Z,9.65
2023-05-12T19:46:29.479Z,9.73
2023-05-12T19:48:56.087Z,9.72
2023-05-12T19:51:22.767Z,9.67
2023-05-12T19:53:49.385Z,9.67
2023-05-12T19:56:15.970Z,9.69
2023-05-12T19:58:42.596Z,9.65
2023-05-12T20:01:10.389Z,9.65
2023-05-12T20:03:37.088Z,9.65
2023-05-12T20:06:04.687Z,9.67
2023-05-12T20:08:31.268Z,9.61
2023-05-12T20:10:57.876Z,9.60
2023-05-12T20:13:24.502Z,9.60
2023-05-12T20:15:51.064Z,9.61
2023-05-12T20:18:17.829Z,9.61
2023-05-12T20:20:44.848Z,9.64
2023-05-12T20:23:11.521Z,9.63
2023-05-12T20:25:38.081Z,9.64
2023-05-12T20:28:04.813Z,9.61
2023-05-12T20:30:31.389Z,9.62
2023-05-12T20:32:58.132Z,9.59
2023-05-12T20:35:24.764Z,9.61
2023-05-12T20:37:51.375Z,9.55
2023-05-12T20:40:18.375Z,9.59
2023-05-12T20:42:48.316Z,9.55
2023-05-12T20:45:15.838Z,9.56
2023-05-12T20:47:42.731Z,9.56
2023-05-12T20:50:10.814Z,9.61
2023-05-12T20:52:39.078Z,9.59
2023-05-12T20:55:06.909Z,9.63
2023-05-12T20:57:33.810Z,9.65
2023-05-12T21:00:00.574Z,9.65
2023-05-12T21:02:29.043Z,9.67
2023-05-12T21:04:56.082Z,9.71
2023-05-12T21:07:22.762Z,9.68
2023-05-12T21:09:49.388Z,9.69
2023-05-12T21:12:16.063Z,9.64
2023-05-12T21:14:45.137Z,9.63
2023-05-12T21:17:12.370Z,9.65
2023-05-12T21:19:40.305Z,9.62
2023-05-12T21:22:07.885Z,9.63
2023-05-12T21:24:36.453Z,9.65
2023-05-12T21:27:04.826Z,9.62
2023-05-12T21:29:32.894Z,9.64
2023-05-12T21:31:59.859Z,9.63
2023-05-12T21:34:26.734Z,9.61
2023-05-12T21:36:54.641Z,9.63
2023-05-12T21:39:21.932Z,9.64
2023-05-12T21:41:49.043Z,9.61
2023-05-12T21:44:16.329Z,9.67
2023-05-12T21:46:43.332Z,9.62
2023-05-12T21:49:10.264Z,9.60
2023-05-12T21:51:36.858Z,9.57
2023-05-12T21:54:03.647Z,9.52
2023-05-12T21:56:30.231Z,9.56
2023-05-12T21:58:57.028Z,9.63
2023-05-12T22:01:23.657Z,9.64
2023-05-12T22:03:50.254Z,9.60
2023-05-12T22:06:16.882Z,9.62
2023-05-12T22:08:43.509Z,9.62
2023-05-12T22:11:10.793Z,9.64
2023-05-12T22:13:37.443Z,9.57
2023-05-12T22:16:04.351Z,9.59
2023-05-12T22:18:31.714Z,9.56
2023-05-12T22:20:58.882Z,9.54
2023-05-12T22:23:25.586Z,9.53
2023-05-12T22:25:52.331Z,9.69
2023-05-12T22:28:18.933Z,9.65
2023-05-12T22:30:45.612Z,9.65
2023-05-12T22:33:12.301Z,9.64
2023-05-12T22:35:38.895Z,9.57
2023-05-12T22:38:05.701Z,9.56
2023-05-12T22:40:33.524Z,9.60
2023-05-12T22:43:00.161Z,9.66
2023-05-12T22:45:26.792Z,9.62
2023-05-12T22:47:53.639Z,9.65
2023-05-12T22:50:20.866Z,9.71
2023-05-12T22:52:47.800Z,9.68
2023-05-12T22:55:14.442Z,9.67
2023-05-12T22:57:43.558Z,9.73
2023-05-12T23:00:10.569Z,9.67
2023-05-12T23:02:37.215Z,9.66
2023-05-12T23:05:04.227Z,9.67
2023-05-12T23:07:31.143Z,9.65
2023-05-12T23:09:57.787Z,9.62
2023-05-12T23:12:24.359Z,9.59
2023-05-12T23:14:51.047Z,9.57
2023-05-12T23:17:17.699Z,9.52
2023-05-12T23:19:44.319Z,9.53
2023-05-12T23:22:10.881Z,9.53
2023-05-12T23:24:38.194Z,9.52
2023-05-12T23:27:05.015Z,9.54
2023-05-12T23:29:34.459Z,9.56
2023-05-12T23:32:01.106Z,9.58
2023-05-12T23:34:27.784Z,9.56
2023-05-12T23:36:54.565Z,9.53
2023-05-12T23:39:21.143Z,9.58
2023-05-12T23:41:47.848Z,9.59
2023-05-12T23:44:14.433Z,9.55
2023-05-12T23:46:41.218Z,9.54
2023-05-12T23:49:07.828Z,9.54
2023-05-12T23:51:34.826Z,9.55
2023-05-12T23:54:01.405Z,9.54
2023-05-12T23:56:28.030Z,9.51
2023-05-12T23:58:54.600Z,9.54
